Impacts TAF Board
For situational awareness. Not to be used for flight planning purposes.
IDs:

KMTN - Baltimore/Martin Sta, MD, US

Issued at 2327 UTC 26 Feb 2020
Updated at 2334 UTC 26 Feb 2020
Potential Impact None Slight Moderate High
Time2254Z 27/00Z 27/01Z 27/02Z 27/03Z 27/04Z 27/05Z 27/06Z 27/07Z 27/08Z 27/09Z 27/10Z 27/11Z 27/12Z>>
Type OBS PRVL PRVL PRVL PRVL PRVL PRVL PRVL PRVL PRVL PRVL PRVL PRVL PRVL
VIS 7 4 4 4 4 2 2 4 4 4 >6 >6 >6 >6
CIG 8 5 5 5 5 8 8 8 20 20 20 -- -- --
Cover OVC OVC OVC OVC OVC OVC OVC OVC BKN BKN BKN FEW FEW FEW
FltCat IFR IFR IFR IFR IFR IFR IFR IFR MVFR MVFR MVFR VFR VFR VFR
WX -- BR BR BR BR SHRA SHRA -SHRA -SHRA -SHRA -- -- -- --
WDir 80 110 110 110 110 220 220 260 260 260 260 270 270 270
WSpd 8 9 9 9 9 11 11 12 12 12 13 16 16 16
WGst -- -- -- -- -- 19 19 21 19 19 22 29 29 29
Raw TAF
KMTN 262327Z 2700/2724 11009KT 4SM BR SCT003 OVC005
  FM270400 22011G19KT 2SM SHRA SCT003 OVC008
  FM270600 26012G21KT 4SM -SHRA OVC008
  FM270700 26012G19KT 4SM -SHRA SCT015 BKN020
  FM270900 26013G22KT P6SM BKN020
  FM271000 27016G29KT P6SM FEW250 AMD NOT SKED 2702/2712


Raw METAR
KMTN 262254Z 08008KT 7SM OVC008 09/09 A2977
KMTN 262154Z 07003KT 10SM OVC008 09/09 A2980
KMTN 262054Z 07003KT 10SM OVC008 09/09 A2981

METAR Board
Radar Display
Forecast Discussion
For situational awareness. Not to be used for flight planning purposes.